createdAt,value
2023-01-22T00:01:21.300Z,9.97
2023-01-22T00:03:49.838Z,9.97
2023-01-22T00:06:17.959Z,9.99
2023-01-22T00:08:46.761Z,9.94
2023-01-22T00:11:17.146Z,9.89
2023-01-22T00:13:45.733Z,9.92
2023-01-22T00:16:14.691Z,9.89
2023-01-22T00:18:42.869Z,9.90
2023-01-22T00:21:12.231Z,9.92
2023-01-22T00:23:40.854Z,9.92
2023-01-22T00:26:12.256Z,9.87
2023-01-22T00:28:42.616Z,9.82
2023-01-22T00:31:13.014Z,9.75
2023-01-22T00:33:42.028Z,9.81
2023-01-22T00:36:12.806Z,9.76
2023-01-22T00:38:41.200Z,9.79
2023-01-22T00:41:10.078Z,9.74
2023-01-22T00:43:39.682Z,9.75
2023-01-22T00:46:10.648Z,9.76
2023-01-22T00:48:38.975Z,9.75
2023-01-22T00:51:08.879Z,9.74
2023-01-22T00:53:37.478Z,9.78
2023-01-22T00:56:06.443Z,9.82
2023-01-22T00:58:35.099Z,9.87
2023-01-22T01:01:03.503Z,9.78
2023-01-22T01:03:33.443Z,9.81
2023-01-22T01:06:04.119Z,9.85
2023-01-22T01:08:34.670Z,9.82
2023-01-22T01:11:05.285Z,9.79
2023-01-22T01:13:38.561Z,9.79
2023-01-22T01:16:08.683Z,9.67
2023-01-22T01:18:38.521Z,9.64
2023-01-22T01:21:07.603Z,9.62
2023-01-22T01:23:37.304Z,9.71
2023-01-22T01:26:09.811Z,9.76
2023-01-22T01:28:38.495Z,9.82
2023-01-22T01:31:08.830Z,9.79
2023-01-22T01:33:38.524Z,9.92
2023-01-22T01:36:09.243Z,9.80
2023-01-22T01:38:38.606Z,9.88
2023-01-22T01:41:06.918Z,9.78
2023-01-22T01:43:35.547Z,9.72
2023-01-22T01:46:06.614Z,9.80
2023-01-22T01:48:40.216Z,9.92
2023-01-22T01:51:12.537Z,10.06
2023-01-22T01:53:42.170Z,10.04
2023-01-22T01:56:14.740Z,9.98
2023-01-22T01:58:45.935Z,9.98
2023-01-22T02:01:16.522Z,10.03
2023-01-22T02:03:47.491Z,10.11
2023-01-22T02:06:17.961Z,10.09
2023-01-22T02:08:49.421Z,10.07
2023-01-22T02:11:19.206Z,10.07
2023-01-22T02:13:52.398Z,10.11
2023-01-22T02:16:20.621Z,10.07
2023-01-22T02:18:50.570Z,10.15
2023-01-22T02:21:40.101Z,10.06
2023-01-22T02:24:10.869Z,10.04
2023-01-22T02:26:40.050Z,10.03
2023-01-22T02:29:09.325Z,9.99
2023-01-22T02:31:38.345Z,10.00
2023-01-22T02:34:07.787Z,10.02
2023-01-22T02:36:39.791Z,10.00
2023-01-22T02:39:08.463Z,9.98
2023-01-22T02:41:36.640Z,9.94
2023-01-22T02:44:05.222Z,9.98
2023-01-22T02:46:33.302Z,9.91
2023-01-22T02:49:01.602Z,9.92
2023-01-22T02:51:29.679Z,9.87
2023-01-22T02:53:59.219Z,9.94
2023-01-22T02:56:28.372Z,9.88
2023-01-22T02:58:56.523Z,9.76
2023-01-22T03:01:25.933Z,9.77
2023-01-22T03:03:55.678Z,9.81
2023-01-22T03:06:26.325Z,9.77
2023-01-22T03:08:56.199Z,9.68
2023-01-22T03:11:27.271Z,9.69
2023-01-22T03:14:13.491Z,9.71
2023-01-22T03:16:59.422Z,9.76
2023-01-22T03:19:45.105Z,9.74
2023-01-22T03:22:14.360Z,9.86
2023-01-22T03:24:42.535Z,9.91
2023-01-22T03:27:12.237Z,9.91
2023-01-22T03:29:40.363Z,9.91
2023-01-22T03:32:08.489Z,9.99
2023-01-22T03:34:36.693Z,9.92
2023-01-22T03:37:09.817Z,9.87
2023-01-22T03:39:37.961Z,9.90
2023-01-22T03:42:06.364Z,9.86
2023-01-22T03:44:37.917Z,9.92
2023-01-22T03:47:06.067Z,9.90
2023-01-22T03:49:34.162Z,9.89
2023-01-22T03:52:02.245Z,9.87
2023-01-22T03:54:30.390Z,9.86
2023-01-22T03:56:58.589Z,9.92
2023-01-22T03:59:26.678Z,9.99
2023-01-22T04:01:56.215Z,9.88
2023-01-22T04:04:24.571Z,9.87
2023-01-22T04:06:52.756Z,9.86
2023-01-22T04:09:20.889Z,9.88
2023-01-22T04:11:49.014Z,9.82
2023-01-22T04:14:17.241Z,9.73
2023-01-22T04:16:45.411Z,9.67
2023-01-22T04:19:15.243Z,9.64
2023-01-22T04:21:43.686Z,9.67
2023-01-22T04:24:11.836Z,9.56
2023-01-22T04:26:43.906Z,9.45
2023-01-22T04:29:12.130Z,9.51
2023-01-22T04:31:40.358Z,9.51
2023-01-22T04:34:08.596Z,9.49
2023-01-22T04:36:38.199Z,9.49
2023-01-22T04:39:06.349Z,9.52
2023-01-22T04:41:34.452Z,9.51
2023-01-22T04:44:02.544Z,9.47
2023-01-22T04:46:30.619Z,9.47
2023-01-22T04:48:58.754Z,9.50
2023-01-22T04:51:28.030Z,9.49
2023-01-22T04:53:57.571Z,9.49
2023-01-22T04:56:25.766Z,9.56
2023-01-22T04:58:53.898Z,9.60
2023-01-22T05:01:23.076Z,9.57
2023-01-22T05:03:51.269Z,9.63
2023-01-22T05:06:19.333Z,9.65
2023-01-22T05:08:47.478Z,9.64
2023-01-22T05:11:16.978Z,9.54
2023-01-22T05:13:45.026Z,9.62
2023-01-22T05:16:13.256Z,9.74
2023-01-22T05:18:41.423Z,9.79
2023-01-22T05:21:10.783Z,9.73
2023-01-22T05:23:38.957Z,9.68
2023-01-22T05:26:07.448Z,9.71
2023-01-22T05:28:37.319Z,9.70
2023-01-22T05:31:05.574Z,9.72
2023-01-22T05:33:34.349Z,9.71
2023-01-22T05:36:04.000Z,9.65
2023-01-22T05:38:32.469Z,9.69
2023-01-22T05:41:00.833Z,9.70
2023-01-22T05:43:28.964Z,9.67
2023-01-22T05:46:02.656Z,9.64
2023-01-22T05:48:30.855Z,9.60
2023-01-22T05:50:59.058Z,9.59
2023-01-22T05:53:27.137Z,9.50
2023-01-22T05:55:55.279Z,9.52
2023-01-22T05:58:23.298Z,9.55
2023-01-22T06:00:53.943Z,9.52
2023-01-22T06:03:23.520Z,9.53
2023-01-22T06:06:00.097Z,9.54
2023-01-22T06:08:28.859Z,9.51
2023-01-22T06:11:03.658Z,9.51
2023-01-22T06:13:32.349Z,9.56
2023-01-22T06:16:00.707Z,9.55
2023-01-22T06:18:30.654Z,9.64
2023-01-22T06:21:00.130Z,9.60
2023-01-22T06:23:29.749Z,9.62
2023-01-22T06:25:59.858Z,9.59
2023-01-22T06:28:28.238Z,9.62
2023-01-22T06:30:58.796Z,9.55
2023-01-22T06:33:27.181Z,9.53
2023-01-22T06:35:57.385Z,9.56
2023-01-22T06:38:25.786Z,9.56
2023-01-22T06:40:54.767Z,9.54
2023-01-22T06:43:23.077Z,9.54
2023-01-22T06:45:51.500Z,9.57
2023-01-22T06:48:19.811Z,9.56
2023-01-22T06:50:48.463Z,9.69
2023-01-22T06:53:18.064Z,9.76
2023-01-22T06:55:46.092Z,9.63
2023-01-22T06:58:14.281Z,9.61
2023-01-22T07:00:42.447Z,9.65
2023-01-22T07:03:10.649Z,9.63
2023-01-22T07:05:38.690Z,9.60
2023-01-22T07:08:07.020Z,9.58
2023-01-22T07:10:36.571Z,9.72
2023-01-22T07:13:04.693Z,9.70
2023-01-22T07:15:32.809Z,9.77
2023-01-22T07:18:00.940Z,9.91
2023-01-22T07:20:29.050Z,9.99
2023-01-22T07:23:00.258Z,10.03
2023-01-22T07:25:28.815Z,10.19
2023-01-22T07:28:02.169Z,10.31
2023-01-22T07:30:30.660Z,10.26
2023-01-22T07:33:00.430Z,10.45
2023-01-22T07:35:28.917Z,10.52
2023-01-22T07:37:58.490Z,10.38
2023-01-22T07:40:28.478Z,10.46
2023-01-22T07:42:57.311Z,10.60
2023-01-22T07:45:27.540Z,10.47
2023-01-22T07:47:58.842Z,10.47
2023-01-22T07:50:29.623Z,10.64
2023-01-22T07:52:58.171Z,10.72
2023-01-22T07:55:26.983Z,10.59
2023-01-22T07:58:00.099Z,10.51
2023-01-22T08:00:29.926Z,10.76
2023-01-22T08:02:58.125Z,10.91
2023-01-22T08:05:26.239Z,10.77
2023-01-22T08:07:54.368Z,11.02
2023-01-22T08:10:22.506Z,11.31
2023-01-22T08:12:50.570Z,11.36
2023-01-22T08:15:18.911Z,11.26
2023-01-22T08:17:50.118Z,10.75
2023-01-22T08:20:19.237Z,10.62
2023-01-22T08:22:47.641Z,10.72
2023-01-22T08:25:15.868Z,10.64
2023-01-22T08:27:44.024Z,10.75
2023-01-22T08:30:13.232Z,10.64
2023-01-22T08:32:42.095Z,10.61
2023-01-22T08:35:13.079Z,10.62
2023-01-22T08:37:43.970Z,10.60
2023-01-22T08:40:13.876Z,10.53
2023-01-22T08:42:42.078Z,10.45
2023-01-22T08:45:10.893Z,10.69
2023-01-22T08:47:39.014Z,10.79
2023-01-22T08:50:08.903Z,10.80
2023-01-22T08:52:38.426Z,10.89
2023-01-22T08:55:10.019Z,10.97
2023-01-22T08:57:38.206Z,10.87
2023-01-22T09:00:08.947Z,10.81
2023-01-22T09:02:37.058Z,11.04
2023-01-22T09:05:05.620Z,11.28
2023-01-22T09:07:34.785Z,10.84
2023-01-22T09:10:08.157Z,10.85
2023-01-22T09:12:36.732Z,10.93
2023-01-22T09:15:05.263Z,10.77
2023-01-22T09:17:33.447Z,10.73
2023-01-22T09:20:01.847Z,10.81
2023-01-22T09:22:30.114Z,11.02
2023-01-22T09:24:58.264Z,10.78
2023-01-22T09:27:27.711Z,10.78
2023-01-22T09:29:56.012Z,10.97
2023-01-22T09:32:24.171Z,10.58
2023-01-22T09:34:52.389Z,10.77
2023-01-22T09:37:20.468Z,10.89
2023-01-22T09:39:50.839Z,10.77
2023-01-22T09:42:22.985Z,10.56
2023-01-22T09:44:56.716Z,10.50
2023-01-22T09:47:34.477Z,10.60
2023-01-22T09:50:07.478Z,10.60
2023-01-22T09:52:38.558Z,10.54
2023-01-22T09:55:13.494Z,11.06
2023-01-22T09:57:45.596Z,11.22
2023-01-22T10:00:20.184Z,10.97
2023-01-22T10:02:52.119Z,10.70
2023-01-22T10:05:32.898Z,10.92
2023-01-22T10:08:07.695Z,10.77
2023-01-22T10:10:36.602Z,11.05
2023-01-22T10:13:14.614Z,10.65
2023-01-22T10:15:44.595Z,10.39
2023-01-22T10:18:23.968Z,10.58
2023-01-22T10:20:53.014Z,10.32
2023-01-22T10:23:23.339Z,10.26
2023-01-22T10:25:53.870Z,10.49
2023-01-22T10:28:26.846Z,10.37
2023-01-22T10:30:58.994Z,10.50
2023-01-22T10:33:29.315Z,10.26
2023-01-22T10:35:58.141Z,10.25
2023-01-22T10:38:30.122Z,10.57
2023-01-22T10:41:00.913Z,10.59
2023-01-22T10:43:36.628Z,10.31
2023-01-22T10:46:17.219Z,10.19
2023-01-22T10:48:45.490Z,10.24
2023-01-22T10:51:16.882Z,10.17
2023-01-22T10:53:49.813Z,10.26
2023-01-22T10:56:29.717Z,10.17
2023-01-22T10:58:59.109Z,10.11
2023-01-22T11:01:33.638Z,10.05
2023-01-22T11:04:13.538Z,10.04
2023-01-22T11:06:46.076Z,10.22
2023-01-22T11:09:19.223Z,10.15
2023-01-22T11:11:53.523Z,10.34
2023-01-22T11:14:25.948Z,10.27
2023-01-22T11:17:01.105Z,10.44
2023-01-22T11:19:41.077Z,10.43
2023-01-22T11:22:23.337Z,10.28
2023-01-22T11:24:52.254Z,10.46
2023-01-22T11:27:35.454Z,10.52
2023-01-22T11:30:24.080Z,10.23
2023-01-22T11:33:03.105Z,10.06
2023-01-22T11:35:38.569Z,10.23
2023-01-22T11:38:18.417Z,10.16
2023-01-22T11:41:02.321Z,10.15
2023-01-22T11:43:45.656Z,10.09
2023-01-22T11:46:37.222Z,9.99
2023-01-22T11:49:27.887Z,10.04
2023-01-22T11:52:12.412Z,10.19
2023-01-22T11:54:59.613Z,10.20
2023-01-22T11:57:34.363Z,10.06
2023-01-22T12:00:27.338Z,10.05
2023-01-22T12:03:44.087Z,10.19
2023-01-22T12:06:26.188Z,10.23
2023-01-22T12:09:05.485Z,10.23
2023-01-22T12:11:44.699Z,10.27
2023-01-22T12:14:37.104Z,10.28
2023-01-22T12:17:16.957Z,10.24
2023-01-22T12:20:04.926Z,10.14
2023-01-22T12:22:41.866Z,10.16
2023-01-22T12:25:20.409Z,10.13
2023-01-22T12:27:55.402Z,10.03
2023-01-22T12:30:27.447Z,9.98
2023-01-22T12:32:59.502Z,9.92
2023-01-22T12:35:30.313Z,9.74
2023-01-22T12:38:07.518Z,9.61
2023-01-22T12:41:02.971Z,9.55
2023-01-22T12:43:35.699Z,9.53
2023-01-22T12:46:12.777Z,9.56
2023-01-22T12:48:49.659Z,9.54
2023-01-22T12:51:28.534Z,9.47
2023-01-22T12:54:10.067Z,9.43
2023-01-22T12:56:38.137Z,9.38
2023-01-22T12:59:06.215Z,9.37
2023-01-22T13:01:36.629Z,9.45
2023-01-22T13:04:07.688Z,9.36
2023-01-22T13:06:38.265Z,9.33
2023-01-22T13:09:23.200Z,9.34
2023-01-22T13:11:51.310Z,9.32
2023-01-22T13:14:22.611Z,9.21
2023-01-22T13:16:54.310Z,9.35
2023-01-22T13:19:24.834Z,9.28
2023-01-22T13:21:53.769Z,9.29
2023-01-22T13:24:23.254Z,9.21
2023-01-22T13:26:55.030Z,9.24
2023-01-22T13:29:27.207Z,9.18
2023-01-22T13:31:57.663Z,9.15
2023-01-22T13:34:26.935Z,9.14
2023-01-22T13:36:55.648Z,9.26
2023-01-22T13:39:28.310Z,9.12
2023-01-22T13:41:58.374Z,9.14
2023-01-22T13:44:29.327Z,9.14
2023-01-22T13:46:58.844Z,9.18
2023-01-22T13:49:29.323Z,9.08
2023-01-22T13:52:00.688Z,9.12
2023-01-22T13:54:34.593Z,9.17
2023-01-22T13:57:02.816Z,9.16
2023-01-22T13:59:35.139Z,9.12
2023-01-22T14:02:22.103Z,8.96
2023-01-22T14:04:51.210Z,9.01
2023-01-22T14:07:27.490Z,9.03
2023-01-22T14:09:58.064Z,9.04
2023-01-22T14:12:30.379Z,9.03
2023-01-22T14:14:58.828Z,9.04
2023-01-22T14:17:30.034Z,8.99
2023-01-22T14:19:58.462Z,8.94
2023-01-22T14:22:26.941Z,8.94
2023-01-22T14:24:56.763Z,8.93
2023-01-22T14:27:28.958Z,8.87
2023-01-22T14:29:57.417Z,8.89
2023-01-22T14:32:26.871Z,8.88
2023-01-22T14:34:55.016Z,8.98
2023-01-22T14:37:23.146Z,8.91
2023-01-22T14:39:51.219Z,8.94
2023-01-22T14:42:20.874Z,8.97
2023-01-22T14:44:49.003Z,8.91
2023-01-22T14:47:17.252Z,9.02
2023-01-22T14:49:45.399Z,8.98
2023-01-22T14:52:14.696Z,8.99
2023-01-22T14:54:42.878Z,8.98
2023-01-22T14:57:11.009Z,8.99
2023-01-22T14:59:40.671Z,8.99
2023-01-22T15:02:10.362Z,9.00
2023-01-22T15:04:40.796Z,8.91
2023-01-22T15:07:09.053Z,8.89
2023-01-22T15:09:37.191Z,8.94
2023-01-22T15:12:06.306Z,8.93
2023-01-22T15:14:34.519Z,8.93
2023-01-22T15:17:04.539Z,8.92
2023-01-22T15:19:40.952Z,8.92
2023-01-22T15:22:09.767Z,8.95
2023-01-22T15:24:39.547Z,8.95
2023-01-22T15:27:08.891Z,8.91
2023-01-22T15:29:37.243Z,8.91
2023-01-22T15:32:07.091Z,8.85
2023-01-22T15:34:35.205Z,8.86
2023-01-22T15:37:05.051Z,8.91
2023-01-22T15:39:33.324Z,8.84
2023-01-22T15:42:01.496Z,8.79
2023-01-22T15:44:29.657Z,8.79
2023-01-22T15:46:59.069Z,8.76
2023-01-22T15:49:29.751Z,8.73
2023-01-22T15:51:57.904Z,8.72
2023-01-22T15:54:26.936Z,8.65
2023-01-22T15:57:00.736Z,8.69
2023-01-22T15:59:30.696Z,8.65
2023-01-22T16:02:04.898Z,8.61
2023-01-22T16:04:38.876Z,8.66
2023-01-22T16:07:07.087Z,8.60
2023-01-22T16:09:35.416Z,8.58
2023-01-22T16:12:03.824Z,8.57
2023-01-22T16:14:32.018Z,8.55
2023-01-22T16:17:00.775Z,8.54
2023-01-22T16:19:29.143Z,8.54
2023-01-22T16:21:58.786Z,8.59
2023-01-22T16:24:27.017Z,8.52
2023-01-22T16:26:55.407Z,8.56
2023-01-22T16:29:23.583Z,8.52
2023-01-22T16:31:51.849Z,8.53
2023-01-22T16:34:21.852Z,8.55
2023-01-22T16:36:51.184Z,8.59
2023-01-22T16:39:23.767Z,8.54
2023-01-22T16:41:52.959Z,8.54
2023-01-22T16:44:26.414Z,8.48
2023-01-22T16:46:57.753Z,8.46
2023-01-22T16:49:27.506Z,8.46
2023-01-22T16:51:56.934Z,8.47
2023-01-22T16:54:29.099Z,8.48
2023-01-22T16:56:58.534Z,8.49
2023-01-22T16:59:27.212Z,8.50
2023-01-22T17:01:56.280Z,8.44
2023-01-22T17:04:24.633Z,8.39
2023-01-22T17:06:54.698Z,8.38
2023-01-22T17:09:24.056Z,8.36
2023-01-22T17:11:55.461Z,8.45
2023-01-22T17:14:25.465Z,8.45
2023-01-22T17:16:54.145Z,8.47
2023-01-22T17:19:22.501Z,8.44
2023-01-22T17:21:51.652Z,8.44
2023-01-22T17:24:22.282Z,8.34
2023-01-22T17:26:51.913Z,8.34
2023-01-22T17:29:22.547Z,8.39
2023-01-22T17:31:51.402Z,8.36
2023-01-22T17:34:19.633Z,8.37
2023-01-22T17:36:50.654Z,8.38
2023-01-22T17:39:24.155Z,8.32
2023-01-22T17:41:53.663Z,8.24
2023-01-22T17:44:23.357Z,8.29
2023-01-22T17:46:54.887Z,8.29
2023-01-22T17:49:25.250Z,8.27
2023-01-22T17:51:53.564Z,8.29
2023-01-22T17:54:21.804Z,8.29
2023-01-22T17:56:53.213Z,8.27
2023-01-22T17:59:58.383Z,8.22
2023-01-22T18:02:28.122Z,8.23
2023-01-22T18:04:56.743Z,8.22
2023-01-22T18:07:25.187Z,8.19
2023-01-22T18:09:53.510Z,8.26
2023-01-22T18:12:21.740Z,8.22
2023-01-22T18:14:50.110Z,8.24
2023-01-22T18:17:18.578Z,8.18
2023-01-22T18:19:48.509Z,8.22
2023-01-22T18:22:16.703Z,8.08
2023-01-22T18:24:45.416Z,7.98
2023-01-22T18:27:17.243Z,7.83
2023-01-22T18:29:46.933Z,7.85
2023-01-22T18:32:15.795Z,7.80
2023-01-22T18:34:45.524Z,7.78
2023-01-22T18:37:15.476Z,7.69
2023-01-22T18:39:44.822Z,7.70
2023-01-22T18:42:12.893Z,7.73
2023-01-22T18:44:41.236Z,7.67
2023-01-22T18:47:11.400Z,7.66
2023-01-22T18:49:39.717Z,7.67
2023-01-22T18:52:07.996Z,7.63
2023-01-22T18:54:37.815Z,7.65
2023-01-22T18:57:05.974Z,7.69
2023-01-22T18:59:34.383Z,7.66
2023-01-22T19:02:02.710Z,7.66
2023-01-22T19:04:30.931Z,7.70
2023-01-22T19:07:00.699Z,7.71
2023-01-22T19:09:29.016Z,7.67
2023-01-22T19:11:58.748Z,7.68
2023-01-22T19:14:27.164Z,7.69
2023-01-22T19:16:55.663Z,7.71
2023-01-22T19:19:24.113Z,7.74
2023-01-22T19:21:54.863Z,7.68
2023-01-22T19:24:26.747Z,7.65
2023-01-22T19:26:55.954Z,7.69
2023-01-22T19:29:26.425Z,7.72
2023-01-22T19:31:57.056Z,7.69
2023-01-22T19:34:25.719Z,7.63
2023-01-22T19:36:55.887Z,7.60
2023-01-22T19:39:26.426Z,7.63
2023-01-22T19:41:54.922Z,7.59
2023-01-22T19:44:23.778Z,7.58
2023-01-22T19:46:53.576Z,7.61
2023-01-22T19:49:22.440Z,7.55
2023-01-22T19:51:50.859Z,7.57
2023-01-22T19:54:19.597Z,7.54
2023-01-22T19:56:54.384Z,7.55
2023-01-22T19:59:24.698Z,7.54
2023-01-22T20:01:54.431Z,7.58
2023-01-22T20:04:25.454Z,7.55
2023-01-22T20:06:57.997Z,7.55
2023-01-22T20:09:26.495Z,7.61
2023-01-22T20:11:58.209Z,7.59
2023-01-22T20:14:30.052Z,7.54
2023-01-22T20:17:00.882Z,7.56
2023-01-22T20:19:30.533Z,7.55
2023-01-22T20:21:59.592Z,7.59
2023-01-22T20:24:28.460Z,7.64
2023-01-22T20:26:57.029Z,7.62
2023-01-22T20:29:25.283Z,7.63
2023-01-22T20:31:54.187Z,7.63
2023-01-22T20:34:23.979Z,7.60
2023-01-22T20:36:52.230Z,7.60
2023-01-22T20:39:20.823Z,7.57
2023-01-22T20:41:49.048Z,7.54
2023-01-22T20:44:17.612Z,7.53
2023-01-22T20:46:45.820Z,7.57
2023-01-22T20:49:14.593Z,7.48
2023-01-22T20:51:44.443Z,7.51
2023-01-22T20:54:12.624Z,7.43
2023-01-22T20:56:40.788Z,7.45
2023-01-22T20:59:11.852Z,7.44
2023-01-22T21:01:40.968Z,7.46
2023-01-22T21:04:09.709Z,7.48
2023-01-22T21:06:39.499Z,7.53
2023-01-22T21:09:10.018Z,7.49
2023-01-22T21:11:41.780Z,7.45
2023-01-22T21:14:15.892Z,7.37
2023-01-22T21:16:45.077Z,7.42
2023-01-22T21:19:17.396Z,7.36
2023-01-22T21:21:46.297Z,7.39
2023-01-22T21:24:20.259Z,7.37
2023-01-22T21:26:48.376Z,7.38
2023-01-22T21:29:18.260Z,7.40
2023-01-22T21:31:49.146Z,7.34
2023-01-22T21:34:18.382Z,7.29
2023-01-22T21:36:50.043Z,7.32
2023-01-22T21:39:22.124Z,7.32
2023-01-22T21:41:50.258Z,7.34
2023-01-22T21:44:37.741Z,7.32
2023-01-22T21:47:06.603Z,7.30
2023-01-22T21:49:36.204Z,7.26
2023-01-22T21:52:09.227Z,7.22
2023-01-22T21:54:41.385Z,7.15
2023-01-22T21:57:14.380Z,7.11
2023-01-22T21:59:42.655Z,7.12
2023-01-22T22:02:14.986Z,7.04
2023-01-22T22:04:44.373Z,7.08
2023-01-22T22:07:13.174Z,7.10
2023-01-22T22:09:44.392Z,7.10
2023-01-22T22:12:12.537Z,7.14
2023-01-22T22:14:40.833Z,7.17
2023-01-22T22:17:09.016Z,7.14
2023-01-22T22:19:37.194Z,7.19
2023-01-22T22:22:05.353Z,7.12
2023-01-22T22:24:33.459Z,7.13
2023-01-22T22:27:03.086Z,7.01
2023-01-22T22:29:31.428Z,7.00
2023-01-22T22:31:59.694Z,6.98
2023-01-22T22:34:27.973Z,7.03
2023-01-22T22:36:56.303Z,7.04
2023-01-22T22:39:24.459Z,7.04
2023-01-22T22:41:52.530Z,7.07
2023-01-22T22:44:22.151Z,7.02
2023-01-22T22:46:50.337Z,7.02
2023-01-22T22:49:18.426Z,7.05
2023-01-22T22:51:47.475Z,7.07
2023-01-22T22:54:17.757Z,7.06
2023-01-22T22:56:47.452Z,7.08
2023-01-22T22:59:18.774Z,7.05
2023-01-22T23:01:49.300Z,7.05
2023-01-22T23:04:29.499Z,7.04
2023-01-22T23:06:57.759Z,7.05
2023-01-22T23:09:25.910Z,7.10
2023-01-22T23:11:56.173Z,7.13
2023-01-22T23:14:24.609Z,7.12
2023-01-22T23:16:54.432Z,7.08
2023-01-22T23:19:24.472Z,7.06
2023-01-22T23:21:54.711Z,7.13
2023-01-22T23:24:23.141Z,7.07
2023-01-22T23:26:51.730Z,7.04
2023-01-22T23:29:26.731Z,7.02
2023-01-22T23:31:56.886Z,7.08
2023-01-22T23:34:25.216Z,7.11
2023-01-22T23:36:53.376Z,7.14
2023-01-22T23:39:22.626Z,7.17
2023-01-22T23:41:50.963Z,7.13
2023-01-22T23:44:19.158Z,7.08
2023-01-22T23:46:47.395Z,7.08
2023-01-22T23:49:16.898Z,7.06
2023-01-22T23:51:45.879Z,7.06
2023-01-22T23:54:14.093Z,7.00
2023-01-22T23:56:42.206Z,6.96
2023-01-22T23:59:14.524Z,6.99
